ヨハネスブルグ の空港の天気 - METARとTAF

ヨハネスブルグ/O.R.タンボ国際空港 ( FAOR / JNB ) - 南アフリカ ヨハネスブルグ
飛行場実況気象(Metar)
観測時間08/08 04:30 SAST (08/08 02:30 UTC)
風向・風速北 6m/s
視程10km以上
天気現象
なし
気温4℃
湿度93%
気圧1031hPa
METARFAOR 080230Z 35012KT CAVOK 04/03 Q1031 NOSIG
過去の天気等 Google飛行場航空写真 Wunderground天気予報

過去48時間のMETAR

飛行場予報(TAF)
発表時間: 8/08 03:00 SAST (8/08 01:00 UTC)
予報対象時間: 8日2時 SAST ~ 9日8時 SAST
風向・風速北 5m/s
視程10km以上
なし
8日8時 SAST から
風向・風速北北西 6m/s
視程10km以上
なし
9日2時 SAST ~ 9日8時 SAST に 確率 30% で一時的に
視程5000m
天気現象もや
なし
TAF AMD FAOR 080100Z 0800/0906 01010KT CAVOK TX15/0812Z TN03/0804Z
FM080600 33012KT CAVOK
PROB30 TEMPO 0900/0906 5000 BR NSC